CheckWX is a tool to help pilots better visualize weather data.  It is not intended as a substitute for an official pre-flight weather briefing.

18:14:34 UTC

KTIK TAF
Tinker AFB Airport
Oklahoma City, Oklahoma, USA
TAF KTIK 271700Z 2717/2823 34012KT 9999 SCT035 BKN250 QNH2987INS BECMG 2718/2719 34012KT 9999 VCSH BKN035 BKN250 QNH2991INS BECMG 2721/2722 33010KT 9999 NSW SCT035 QNH2990INS BECMG 2809/2810 VRB06KT 3200 BR SCT012 QNH2990INS BECMG 2814/2815 34015G20KT 9999 NSW BKN030 QNH2999INS TX25/2720Z TN16/2811Z

May-27@
17:00 UTC

May-27 @ 17:00 UTC

May-27@
18:00 UTC

May-27 @ 18:00 UTC

TAF KTIK 271700Z 2717/2823 34012KT 9999 SCT035 BKN250 QNH2987INS

Expired

Wind
  • 340° at 12 KTS
Cloud Levels
  • Scattered at 3,500' AGL
  • Broken at 25,000' AGL

May-27@
18:00 UTC

May-27 @ 18:00 UTC

May-27@
21:00 UTC

May-27 @ 21:00 UTC

BECMG 2718/2719 34012KT 9999 VCSH BKN035 BKN250 QNH2991INS

Expired

Wind
  • 340° at 12 KTS
Conditions
Area Showers
Cloud Levels
  • Broken at 3,500' AGL
  • Broken at 25,000' AGL

May-27@
21:00 UTC

May-27 @ 21:00 UTC

May-28@
09:00 UTC

May-28 @ 09:00 UTC

BECMG 2721/2722 33010KT 9999 NSW SCT035 QNH2990INS

Expired

Wind
  • 330° at 10 KTS
Conditions
No significant weather
Cloud Levels
  • Scattered at 3,500' AGL

May-28@
09:00 UTC

May-28 @ 09:00 UTC

May-28@
14:00 UTC

May-28 @ 14:00 UTC

BECMG 2809/2810 VRB06KT 3200 BR SCT012 QNH2990INS

Expired

Wind
  • Variable at 6 KTS
Conditions
Mist
Cloud Levels
  • Scattered at 1,200' AGL

May-28@
14:00 UTC

May-28 @ 14:00 UTC

May-28@
23:00 UTC

May-28 @ 23:00 UTC

BECMG 2814/2815 34015G20KT 9999 NSW BKN030 QNH2999INS TX25/2720Z TN16/2811Z

Becoming

Becoming Conditions expected by Thu, May 28, 2020 @ 15:00 UTC

Wind
  • 340° at 15 KTS
  • {Gusting to 20 KTS
Conditions
No significant weather
Cloud Levels
  • Broken at 3,000' AGL